Time;durP1;ratioP1;P1;durP2;ratioP2;P2;SDS_P1;SDS_P2;PMS_P1;PMS_P2;Temp;Humidity;BMP_temperature;BMP_pressure;BME280_temperature;BME280_humidity;BME280_pressure;Samples;Min_cycle;Max_cycle;Signal;HPM_P1;HPM_P2
2023/12/01 00:01:30;;;;;;;32.60;20.90;;;;;;;5.71;93.09;96913.81;5024059;28;20651;-72
2023/12/01 00:03:55;;;;;;;28.10;19.67;;;;;;;5.91;92.73;96948.75;5034097;28;20442;-73
2023/12/01 00:06:20;;;;;;;28.75;20.48;;;;;;;5.75;93.51;96900.47;5009396;28;20028;-73
2023/12/01 00:08:48;;;;;;;28.08;19.02;;;;;;;5.95;93.24;96933.72;5030925;28;20033;-73
2023/12/01 00:11:16;;;;;;;29.40;19.88;;;;;;;6.09;93.21;96942.69;5029094;28;20037;-73
2023/12/01 00:13:45;;;;;;;31.55;20.38;;;;;;;6.13;92.20;96944.81;5021645;28;20340;-73
2023/12/01 00:16:10;;;;;;;30.23;21.05;;;;;;;6.10;92.69;96950.28;5039697;28;20037;-73
2023/12/01 00:18:35;;;;;;;31.70;20.00;;;;;;;6.11;92.98;96946.72;5023890;28;20091;-73
2023/12/01 00:21:03;;;;;;;33.10;20.98;;;;;;;5.83;93.29;96898.88;5029698;28;20033;-73
2023/12/01 00:23:30;;;;;;;28.67;19.67;;;;;;;6.06;93.13;96946.41;5028058;28;20033;-73
2023/12/01 00:25:56;;;;;;;25.52;18.02;;;;;;;5.78;93.61;96925.13;5029816;28;20017;-73
2023/12/01 00:28:24;;;;;;;22.35;16.33;;;;;;;5.85;94.71;96917.59;5025624;28;20052;-72
2023/12/01 00:30:49;;;;;;;20.13;14.60;;;;;;;5.71;94.85;96904.34;5021162;28;20049;-72
2023/12/01 00:33:15;;;;;;;20.25;14.43;;;;;;;5.68;94.59;96901.25;5035329;28;20410;-72
2023/12/01 00:35:45;;;;;;;19.02;13.90;;;;;;;5.73;95.06;96901.56;5010179;28;20040;-73
2023/12/01 00:38:13;;;;;;;19.05;13.85;;;;;;;5.64;94.83;96923.97;5025909;28;20033;-72
2023/12/01 00:40:38;;;;;;;18.88;13.63;;;;;;;5.78;94.88;96925.94;5041842;28;20063;-73
2023/12/01 00:43:03;;;;;;;19.90;14.13;;;;;;;5.80;94.00;96936.09;5031263;28;20033;-72
2023/12/01 00:45:29;;;;;;;19.10;13.45;;;;;;;5.67;94.41;96933.16;5027283;28;20111;-72
2023/12/01 00:47:56;;;;;;;20.88;13.13;;;;;;;5.72;95.08;96936.09;5050296;28;20025;-73
2023/12/01 00:50:22;;;;;;;21.85;13.80;;;;;;;5.61;95.51;96947.47;5030630;28;20031;-73
2023/12/01 00:52:51;;;;;;;19.42;14.77;;;;;;;5.81;95.07;96960.94;5034900;28;20072;-72
2023/12/01 00:55:16;;;;;;;22.00;14.73;;;;;;;5.76;95.02;96958.03;5015829;28;20025;-72
2023/12/01 00:57:44;;;;;;;18.23;12.23;;;;;;;5.72;95.14;96942.03;5034323;28;20086;-72
2023/12/01 01:00:09;;;;;;;19.55;14.13;;;;;;;5.44;95.46;96883.91;5032785;28;20025;-73
2023/12/01 01:02:34;;;;;;;22.63;14.73;;;;;;;5.65;95.62;96910.09;5023959;28;20025;-73
2023/12/01 01:05:00;;;;;;;20.67;14.35;;;;;;;5.66;95.40;96887.69;5029897;28;20026;-73
2023/12/01 01:07:25;;;;;;;19.25;13.85;;;;;;;5.71;94.73;96904.34;5018238;28;20457;-73
2023/12/01 01:09:51;;;;;;;19.83;13.23;;;;;;;5.76;94.74;96903.84;5034254;28;20439;-73
2023/12/01 01:12:18;;;;;;;19.20;12.75;;;;;;;5.73;94.25;96891.25;5032300;28;20087;-72
2023/12/01 01:14:44;;;;;;;21.52;13.85;;;;;;;5.62;94.74;96891.56;5037548;28;20504;-72
2023/12/01 01:17:09;;;;;;;20.50;13.77;;;;;;;5.68;94.52;96878.84;5030239;28;20148;-73
2023/12/01 01:19:34;;;;;;;21.13;14.25;;;;;;;5.72;94.24;96874.19;5008829;28;20435;-72
2023/12/01 01:22:02;;;;;;;17.23;13.18;;;;;;;5.74;93.87;96885.97;5028389;28;20029;-73
2023/12/01 01:24:32;;;;;;;19.10;13.65;;;;;;;5.78;93.92;96882.09;5027471;28;20083;-73
2023/12/01 01:26:58;;;;;;;19.50;13.65;;;;;;;5.44;94.51;96843.50;5032639;28;20033;-73
2023/12/01 01:29:23;;;;;;;20.42;12.85;;;;;;;5.76;93.91;96884.03;5033669;28;20036;-72
2023/12/01 01:31:48;;;;;;;19.02;13.30;;;;;;;5.79;92.28;96906.13;5048211;28;20571;-72
2023/12/01 01:34:16;;;;;;;19.85;12.20;;;;;;;5.78;91.78;96894.19;5026202;28;20029;-73
2023/12/01 01:36:44;;;;;;;19.48;12.30;;;;;;;5.82;91.03;96892.91;5031625;28;20032;-73
2023/12/01 01:39:10;;;;;;;15.45;10.70;;;;;;;5.65;91.05;96868.84;5027819;28;20441;-72
2023/12/01 01:41:36;;;;;;;21.38;13.40;;;;;;;5.93;90.82;96899.53;5015185;28;20037;-73
2023/12/01 01:44:01;;;;;;;18.63;12.85;;;;;;;5.87;90.92;96905.34;5008495;28;20029;-72
2023/12/01 01:46:29;;;;;;;15.65;11.18;;;;;;;5.80;90.54;96905.16;5034858;28;20566;-72
2023/12/01 01:48:58;;;;;;;15.82;11.30;;;;;;;5.71;92.27;96886.28;5043271;28;20021;-73
2023/12/01 01:51:26;;;;;;;17.60;11.70;;;;;;;5.71;92.61;96893.19;5020072;28;20029;-72
2023/12/01 01:53:51;;;;;;;14.68;9.73;;;;;;;5.67;93.05;96869.50;5023602;28;20468;-72
2023/12/01 01:56:16;;;;;;;18.77;11.65;;;;;;;5.69;92.97;96879.66;5020938;28;20067;-72
2023/12/01 01:58:42;;;;;;;17.85;11.88;;;;;;;5.75;93.25;96871.31;5014816;28;20087;-73
2023/12/01 02:01:10;;;;;;;19.30;12.43;;;;;;;5.69;92.20;96867.56;5032198;28;20028;-72
2023/12/01 02:03:38;;;;;;;17.85;10.85;;;;;;;5.68;91.76;96852.28;5032890;28;20052;-72
2023/12/01 02:06:07;;;;;;;20.45;12.20;;;;;;;5.51;93.18;96810.13;5013629;28;20520;-72
2023/12/01 02:08:33;;;;;;;19.58;11.95;;;;;;;5.71;92.68;96854.50;5034915;28;20148;-72
2023/12/01 02:11:00;;;;;;;16.67;11.32;;;;;;;5.82;91.80;96845.69;5033749;28;20017;-72
2023/12/01 02:13:28;;;;;;;17.58;11.68;;;;;;;5.67;91.33;96841.13;5010726;28;20017;-72
2023/12/01 02:15:53;;;;;;;19.67;12.25;;;;;;;5.47;92.67;96804.47;5031669;28;20048;-72
2023/12/01 02:18:33;;;;;;;18.60;12.57;;;;;;;5.81;93.63;96839.72;5030745;28;20121;-73
2023/12/01 02:21:00;;;;;;;17.55;11.75;;;;;;;5.80;93.25;96843.25;5037724;28;20094;-72
2023/12/01 02:23:26;;;;;;;20.02;11.00;;;;;;;5.56;92.52;96797.59;5033031;28;20507;-72
2023/12/01 02:25:52;;;;;;;15.95;11.70;;;;;;;5.86;92.44;96849.53;5020998;28;20028;-73
2023/12/01 02:28:17;;;;;;;15.70;10.80;;;;;;;5.83;90.56;96855.03;5034856;28;20032;-73
2023/12/01 02:30:48;;;;;;;16.65;10.65;;;;;;;5.87;90.80;96846.81;5054284;28;20036;-73
2023/12/01 02:33:17;;;;;;;16.48;11.15;;;;;;;5.88;91.10;96845.88;5033917;28;20128;-72
2023/12/01 02:35:46;;;;;;;16.87;10.87;;;;;;;5.88;91.01;96840.72;5046521;28;20314;-72
2023/12/01 02:38:11;;;;;;;16.67;10.93;;;;;;;5.88;94.12;96832.97;5038940;28;20023;-72
2023/12/01 02:40:42;;;;;;;16.00;10.85;;;;;;;5.81;93.24;96836.34;5018600;28;20037;-73
2023/12/01 02:43:14;;;;;;;15.48;11.48;;;;;;;5.92;94.32;96857.47;5035926;28;20040;-72
2023/12/01 02:45:39;;;;;;;17.45;11.65;;;;;;;5.68;94.42;96813.59;5028239;28;20029;-72
2023/12/01 02:48:05;;;;;;;16.27;11.30;;;;;;;5.83;94.29;96847.31;5028304;28;20445;-72
2023/12/01 02:50:31;;;;;;;15.88;9.88;;;;;;;5.78;94.42;96845.19;5033253;28;20035;-72
2023/12/01 02:53:00;;;;;;;14.40;9.45;;;;;;;5.59;95.56;96829.03;5031864;28;20053;-72
2023/12/01 02:55:25;;;;;;;14.27;10.15;;;;;;;5.79;97.00;96875.19;5037711;28;20013;-72
2023/12/01 02:57:51;;;;;;;14.68;10.07;;;;;;;5.79;96.88;96867.44;5017487;28;20032;-72
2023/12/01 03:00:17;;;;;;;15.07;10.50;;;;;;;5.73;97.53;96852.56;5035571;28;20021;-72
2023/12/01 03:02:43;;;;;;;15.50;10.20;;;;;;;5.69;98.08;96848.72;5040901;28;20037;-73
2023/12/01 03:05:09;;;;;;;14.60;9.88;;;;;;;5.70;99.12;96840.81;5034479;28;20378;-73
2023/12/01 03:07:38;;;;;;;17.13;11.30;;;;;;;5.84;99.44;96851.47;5033527;28;20537;-72
2023/12/01 03:10:04;;;;;;;16.60;10.20;;;;;;;5.87;99.71;96846.03;5012654;28;20026;-72
2023/12/01 03:12:29;;;;;;;15.70;10.48;;;;;;;5.59;98.63;96790.34;5034151;28;20056;-72
2023/12/01 03:14:58;;;;;;;15.57;11.05;;;;;;;5.84;99.40;96825.69;5031827;28;20465;-72
2023/12/01 03:17:28;;;;;;;16.35;10.82;;;;;;;5.85;99.99;96812.63;5031379;28;20040;-72
2023/12/01 03:19:53;;;;;;;17.08;10.63;;;;;;;5.74;99.39;96815.53;5048001;28;20041;-73
2023/12/01 03:22:21;;;;;;;16.50;10.40;;;;;;;5.83;99.45;96827.47;5012871;28;20025;-72
2023/12/01 03:24:47;;;;;;;15.93;10.93;;;;;;;5.80;99.37;96808.94;5030973;28;20728;-73
2023/12/01 03:27:25;;;;;;;15.65;10.52;;;;;;;5.84;100.00;96805.06;5023683;28;20029;-72
2023/12/01 03:29:52;;;;;;;15.43;9.70;;;;;;;5.94;100.00;96819.41;5027850;28;20029;-72
2023/12/01 03:32:20;;;;;;;14.35;10.30;;;;;;;5.89;100.00;96813.94;5028387;28;20082;-72
2023/12/01 03:34:48;;;;;;;16.42;10.02;;;;;;;5.53;100.00;96749.75;5031471;28;20029;-72
2023/12/01 03:37:13;;;;;;;13.45;9.30;;;;;;;5.71;100.00;96784.88;5032092;28;20042;-72
2023/12/01 03:39:41;;;;;;;14.45;9.88;;;;;;;5.78;100.00;96778.13;5030187;28;20033;-72
2023/12/01 03:42:09;;;;;;;14.32;9.55;;;;;;;5.43;100.00;96723.28;5029852;28;21150;-73
2023/12/01 03:44:35;;;;;;;14.18;9.38;;;;;;;5.58;100.00;96788.75;5043165;28;20052;-72
2023/12/01 03:47:05;;;;;;;16.08;10.30;;;;;;;5.72;100.00;96781.34;5035638;28;20125;-72
2023/12/01 03:49:35;;;;;;;14.98;10.25;;;;;;;5.85;100.00;96778.31;5043007;28;20021;-72
2023/12/01 03:52:00;;;;;;;12.48;8.80;;;;;;;5.73;100.00;96781.19;5012190;28;20144;-72
2023/12/01 03:54:28;;;;;;;13.63;9.45;;;;;;;5.73;100.00;96785.53;5034564;28;20091;-72
2023/12/01 03:56:55;;;;;;;15.23;10.25;;;;;;;5.71;100.00;96801.19;5035092;28;20013;-72
2023/12/01 03:59:21;;;;;;;18.48;10.98;;;;;;;5.67;100.00;96775.84;5030496;28;20035;-72
2023/12/01 04:01:46;;;;;;;15.10;10.27;;;;;;;5.77;100.00;96826.34;5030545;28;20029;-72
2023/12/01 04:04:11;;;;;;;15.80;10.85;;;;;;;5.75;100.00;96822.31;5033250;28;20485;-72
2023/12/01 04:06:42;;;;;;;14.88;10.18;;;;;;;5.42;100.00;96788.72;5026083;28;20403;-72
2023/12/01 04:09:09;;;;;;;15.60;10.48;;;;;;;5.80;100.00;96820.03;5029378;28;20027;-72
2023/12/01 04:11:35;;;;;;;14.35;9.48;;;;;;;5.46;100.00;96768.56;5031570;28;20032;-72
2023/12/01 04:14:09;;;;;;;14.85;9.80;;;;;;;5.48;100.00;96774.38;5013531;28;20032;-72
2023/12/01 04:16:34;;;;;;;14.85;10.52;;;;;;;5.73;100.00;96801.84;5049100;28;20044;-72
2023/12/01 04:19:00;;;;;;;18.80;12.63;;;;;;;5.51;100.00;96802.41;5038828;28;20239;-72
2023/12/01 04:21:28;;;;;;;18.20;12.07;;;;;;;5.48;100.00;96787.28;5058674;28;20020;-72
2023/12/01 04:23:53;;;;;;;20.48;13.43;;;;;;;5.45;100.00;96793.53;5016070;28;20595;-72
2023/12/01 04:26:21;;;;;;;17.38;12.23;;;;;;;5.49;100.00;96797.41;5038747;28;20029;-71
2023/12/01 04:28:46;;;;;;;18.33;13.10;;;;;;;5.48;100.00;96792.44;5030678;28;20064;-72
2023/12/01 04:31:11;;;;;;;17.23;13.25;;;;;;;5.51;100.00;96795.50;5037739;28;20029;-71
2023/12/01 04:33:37;;;;;;;18.92;12.85;;;;;;;5.52;100.00;96791.13;5036851;28;20446;-71
2023/12/01 04:36:06;;;;;;;17.50;12.07;;;;;;;5.58;100.00;96793.06;5048005;28;20029;-72
2023/12/01 04:38:36;;;;;;;19.48;13.07;;;;;;;5.28;100.00;96753.22;5039974;28;20695;-72
2023/12/01 04:41:02;;;;;;;18.13;13.10;;;;;;;5.49;100.00;96807.72;5052803;28;20037;-72
2023/12/01 04:43:28;;;;;;;17.65;12.48;;;;;;;5.23;100.00;96755.47;5019635;28;20029;-72
2023/12/01 04:45:53;;;;;;;17.35;10.65;;;;;;;5.47;100.00;96790.78;5050255;28;20438;-72
2023/12/01 04:48:19;;;;;;;16.10;10.23;;;;;;;5.48;100.00;96793.22;5020773;28;20460;-72
2023/12/01 04:50:46;;;;;;;17.05;11.05;;;;;;;5.56;100.00;96790.66;5040723;28;20031;-72
2023/12/01 04:53:12;;;;;;;16.67;11.65;;;;;;;5.59;100.00;96790.34;5021392;28;20500;-72
2023/12/01 04:55:40;;;;;;;17.48;11.73;;;;;;;5.59;100.00;96784.38;5033235;28;20021;-72
2023/12/01 04:58:05;;;;;;;15.93;11.63;;;;;;;5.59;100.00;96779.22;5015365;28;20029;-72
2023/12/01 05:00:30;;;;;;;17.40;12.02;;;;;;;5.58;100.00;96770.69;5037374;28;20044;-72
2023/12/01 05:02:57;;;;;;;17.95;11.85;;;;;;;5.64;100.00;96783.91;5038682;28;20106;-72
2023/12/01 05:05:27;;;;;;;16.35;10.40;;;;;;;5.70;100.00;96762.66;5039839;28;20034;-72
2023/12/01 05:07:57;;;;;;;19.60;11.85;;;;;;;5.68;100.00;96767.16;5037351;28;20116;-72
2023/12/01 05:10:23;;;;;;;16.90;11.40;;;;;;;5.62;100.00;96770.38;5042296;28;20053;-72
2023/12/01 05:12:50;;;;;;;14.93;10.57;;;;;;;5.65;100.00;96762.31;5025561;28;20029;-73
2023/12/01 05:15:17;;;;;;;16.10;10.38;;;;;;;5.35;100.00;96707.81;5020285;28;20044;-73
2023/12/01 05:17:47;;;;;;;17.17;10.50;;;;;;;5.75;100.00;96750.09;5018550;28;21188;-73
2023/12/01 05:20:19;;;;;;;14.45;10.25;;;;;;;5.75;100.00;96734.63;5037611;28;20055;-73
2023/12/01 05:22:51;;;;;;;16.90;9.88;;;;;;;5.83;100.00;96724.31;5017190;28;20690;-73
2023/12/01 05:25:18;;;;;;;13.45;9.82;;;;;;;5.79;100.00;96715.28;5039673;28;20032;-72
2023/12/01 05:27:49;;;;;;;14.77;10.27;;;;;;;5.85;100.00;96704.31;5011798;28;20037;-72
2023/12/01 05:30:20;;;;;;;13.73;9.55;;;;;;;5.87;100.00;96711.88;5058360;28;20033;-73
2023/12/01 05:32:47;;;;;;;15.15;9.70;;;;;;;5.89;100.00;96709.94;5043434;28;20029;-73
2023/12/01 05:35:13;;;;;;;13.82;10.23;;;;;;;5.82;100.00;96722.66;5050155;28;20481;-72
2023/12/01 05:37:51;;;;;;;15.90;10.65;;;;;;;5.59;100.00;96697.53;5028148;28;20032;-73
2023/12/01 05:40:20;;;;;;;15.05;10.65;;;;;;;5.78;100.00;96726.53;5031360;28;20033;-72
2023/12/01 05:42:47;;;;;;;;;;;;;;;5.77;100.00;96732.69;5024807;28;20029;-70
2023/12/01 05:45:14;;;;;;;13.65;9.15;;;;;;;5.74;100.00;96722.69;5027099;28;19920;-73
2023/12/01 05:47:45;;;;;;;15.18;10.10;;;;;;;5.81;100.00;96720.28;5036109;28;20036;-72
2023/12/01 05:50:20;;;;;;;14.25;10.13;;;;;;;5.82;100.00;96720.09;5032954;28;20107;-72
2023/12/01 05:52:46;;;;;;;14.25;9.57;;;;;;;5.80;100.00;96723.81;5033134;28;20061;-72
2023/12/01 05:55:16;;;;;;;14.27;8.30;;;;;;;5.86;100.00;96723.16;5030148;28;20074;-73
2023/12/01 05:57:42;;;;;;;;;;;;;;;5.82;100.00;96708.97;5030956;28;20075;-72
2023/12/01 06:00:12;;;;;;;13.73;8.20;;;;;;;5.61;100.00;96663.06;5033377;28;21042;-73
2023/12/01 06:02:47;;;;;;;14.38;9.00;;;;;;;5.83;100.00;96697.72;5032679;28;20132;-73
2023/12/01 06:05:17;;;;;;;13.93;9.25;;;;;;;5.90;100.00;96698.69;5031282;28;20033;-72
2023/12/01 06:07:45;;;;;;;15.25;9.50;;;;;;;5.70;100.00;96673.19;5006993;28;20037;-73
2023/12/01 06:10:11;;;;;;;15.40;9.93;;;;;;;5.92;100.00;96702.69;5040360;28;20029;-72
2023/12/01 06:12:38;;;;;;;12.70;8.90;;;;;;;5.79;100.00;96697.22;5032173;28;20064;-72
2023/12/01 06:15:11;;;;;;;12.13;8.43;;;;;;;5.74;100.00;96691.75;5034434;28;20025;-73
2023/12/01 06:17:37;;;;;;;12.90;8.18;;;;;;;5.54;100.00;96652.56;5024386;28;20037;-73
2023/12/01 06:20:04;;;;;;;11.75;8.40;;;;;;;5.95;100.00;96692.09;5028216;28;20021;-72
2023/12/01 06:22:29;;;;;;;11.25;7.63;;;;;;;6.09;100.00;96705.28;5013436;28;20124;-73
2023/12/01 06:24:57;;;;;;;11.45;8.18;;;;;;;6.19;100.00;96716.25;5039327;28;20020;-72
2023/12/01 06:27:24;;;;;;;12.50;8.35;;;;;;;6.15;100.00;96720.09;5012331;28;20056;-73
2023/12/01 06:29:51;;;;;;;13.93;8.35;;;;;;;6.09;100.00;96723.34;5026361;28;20021;-71
2023/12/01 06:32:18;;;;;;;13.63;8.82;;;;;;;6.12;100.00;96734.16;5025084;28;21225;-73
2023/12/01 06:34:44;;;;;;;12.27;8.80;;;;;;;6.25;100.00;96738.03;5011870;28;20026;-73
2023/12/01 06:37:09;;;;;;;12.05;8.25;;;;;;;6.14;100.00;96703.03;5027269;28;20086;-72
2023/12/01 06:39:35;;;;;;;14.30;9.30;;;;;;;6.21;100.00;96757.41;5029173;28;20029;-73
2023/12/01 06:42:02;;;;;;;13.88;8.82;;;;;;;6.12;100.00;96757.38;5028083;28;20029;-72
2023/12/01 06:44:30;;;;;;;13.50;9.32;;;;;;;5.84;100.00;96720.75;5030865;28;20152;-73
2023/12/01 06:46:55;;;;;;;12.88;8.85;;;;;;;5.93;100.00;96743.00;5024415;28;20032;-73
2023/12/01 06:49:24;;;;;;;12.55;8.85;;;;;;;5.99;100.00;96733.03;5035686;28;20033;-73
2023/12/01 06:51:49;;;;;;;15.07;10.07;;;;;;;6.15;100.00;96740.75;5042351;28;20078;-73
2023/12/01 06:54:17;;;;;;;14.27;10.07;;;;;;;6.16;100.00;96744.97;5034042;28;20053;-73
2023/12/01 06:56:45;;;;;;;14.85;9.52;;;;;;;6.22;100.00;96738.34;5028788;28;20830;-70
2023/12/01 06:59:10;;;;;;;15.60;10.30;;;;;;;6.25;100.00;96733.66;5023230;28;20032;-72
2023/12/01 07:01:38;;;;;;;15.10;9.65;;;;;;;6.27;100.00;96742.03;5043809;28;20029;-71
2023/12/01 07:04:07;;;;;;;15.45;9.98;;;;;;;6.37;100.00;96741.88;5005532;28;20029;-70
2023/12/01 07:06:34;;;;;;;14.02;9.52;;;;;;;6.37;100.00;96718.66;5028181;28;20029;-68
2023/12/01 07:09:03;;;;;;;13.13;9.77;;;;;;;6.37;100.00;96716.06;5026375;28;20029;-72
2023/12/01 07:11:28;;;;;;;20.75;12.57;;;;;;;6.25;100.00;96710.44;5020639;28;20033;-73
2023/12/01 07:13:56;;;;;;;18.73;14.05;;;;;;;6.18;100.00;96709.47;5032140;28;20040;-69
2023/12/01 07:16:26;;;;;;;23.80;16.02;;;;;;;6.05;100.00;96714.34;5023413;28;20036;-70
2023/12/01 07:18:51;;;;;;;22.05;16.05;;;;;;;6.07;100.00;96700.28;5033346;28;20036;-73
2023/12/01 07:21:19;;;;;;;22.35;17.33;;;;;;;6.23;100.00;96694.31;5028784;28;20025;-69
2023/12/01 07:23:46;;;;;;;23.25;16.20;;;;;;;6.02;100.00;96696.59;5018713;28;20044;-73
2023/12/01 07:26:13;;;;;;;26.65;17.75;;;;;;;5.94;100.00;96699.97;5029810;28;20029;-71
2023/12/01 07:28:41;;;;;;;21.90;16.35;;;;;;;5.87;100.00;96694.63;5031882;28;20425;-70
2023/12/01 07:31:07;;;;;;;19.75;15.60;;;;;;;5.84;100.00;96702.72;5029338;28;20052;-70
2023/12/01 07:33:32;;;;;;;21.05;16.35;;;;;;;5.84;100.00;96700.13;5033016;28;20037;-71
2023/12/01 07:35:57;;;;;;;22.95;16.52;;;;;;;6.01;100.00;96711.28;5033226;28;20039;-71
2023/12/01 07:38:23;;;;;;;22.52;15.95;;;;;;;5.99;100.00;96723.53;5026040;28;20055;-72
2023/12/01 07:40:51;;;;;;;24.63;16.38;;;;;;;6.00;100.00;96732.06;5013836;28;20051;-70
2023/12/01 07:43:16;;;;;;;25.77;18.52;;;;;;;5.79;100.00;96694.66;5010460;28;20033;-71
2023/12/01 07:45:41;;;;;;;24.35;17.17;;;;;;;6.03;100.00;96742.88;5034779;28;20135;-72
2023/12/01 07:48:09;;;;;;;21.40;15.77;;;;;;;5.91;100.00;96744.94;5046197;28;20044;-71
2023/12/01 07:50:35;;;;;;;21.70;15.15;;;;;;;6.02;100.00;96767.03;5031450;28;20257;-72
2023/12/01 07:53:04;;;;;;;19.08;13.57;;;;;;;5.95;100.00;96772.06;5040359;28;20053;-72
2023/12/01 07:55:30;;;;;;;17.02;12.75;;;;;;;5.98;100.00;96765.75;5032215;28;20032;-73
2023/12/01 07:57:55;;;;;;;17.17;12.73;;;;;;;5.93;100.00;96771.38;5011344;28;20367;-68
2023/12/01 08:00:23;;;;;;;16.52;12.45;;;;;;;5.75;100.00;96742.38;5031048;28;20744;-73
2023/12/01 08:02:53;;;;;;;15.60;11.75;;;;;;;5.91;100.00;96765.59;5023053;28;20074;-71
2023/12/01 08:05:21;;;;;;;16.73;11.95;;;;;;;5.96;100.00;96763.34;5033874;28;20029;-68
2023/12/01 08:07:54;;;;;;;14.82;11.60;;;;;;;5.81;100.00;96733.19;5027861;28;20104;-69
2023/12/01 08:10:20;;;;;;;17.55;11.98;;;;;;;6.14;100.00;96752.06;5035684;28;20037;-68
2023/12/01 08:12:49;;;;;;;14.75;9.93;;;;;;;6.06;100.00;96752.88;5013560;28;20047;-71
2023/12/01 08:15:15;;;;;;;14.43;10.10;;;;;;;6.04;100.00;96757.41;5027784;28;20075;-70
2023/12/01 08:17:42;;;;;;;14.75;9.93;;;;;;;6.12;100.00;96759.16;5032608;28;20037;-72
2023/12/01 08:20:08;;;;;;;13.57;9.50;;;;;;;6.23;100.00;96758.84;5024793;28;20538;-67
2023/12/01 08:22:35;;;;;;;11.90;8.77;;;;;;;6.06;100.00;96780.44;5013483;28;20551;-71
2023/12/01 08:25:01;;;;;;;11.25;7.68;;;;;;;6.11;100.00;96762.69;5031131;28;20029;-71
2023/12/01 08:27:26;;;;;;;11.32;7.32;;;;;;;6.14;100.00;96767.53;5016434;28;20472;-70
2023/12/01 08:29:52;;;;;;;11.00;7.40;;;;;;;6.01;100.00;96769.81;5013324;28;20063;-70
2023/12/01 08:32:18;;;;;;;10.32;7.53;;;;;;;5.97;100.00;96754.66;5031050;28;20033;-70
2023/12/01 08:34:45;;;;;;;11.00;6.95;;;;;;;6.09;100.00;96754.31;5011069;28;20057;-70
2023/12/01 08:37:11;;;;;;;9.65;6.90;;;;;;;6.10;100.00;96766.25;5034993;28;20033;-70
2023/12/01 08:39:36;;;;;;;9.13;5.78;;;;;;;6.20;100.00;96772.06;5028772;28;20138;-70
2023/12/01 08:42:04;;;;;;;8.75;6.00;;;;;;;6.08;100.00;96786.25;5030807;28;20786;-70
2023/12/01 08:44:30;;;;;;;9.82;5.65;;;;;;;6.08;100.00;96784.47;5010903;28;20388;-68
2023/12/01 08:46:55;;;;;;;7.45;5.68;;;;;;;6.18;100.00;96784.31;5026339;28;20037;-67
2023/12/01 08:49:20;;;;;;;8.57;5.97;;;;;;;6.35;100.00;96787.69;5031086;28;20098;-71
2023/12/01 08:51:48;;;;;;;9.07;5.85;;;;;;;6.25;100.00;96743.19;5010585;28;20025;-70
2023/12/01 08:54:16;;;;;;;9.43;5.78;;;;;;;6.48;100.00;96769.13;5018228;28;20480;-69
2023/12/01 08:56:41;;;;;;;10.65;5.78;;;;;;;6.23;100.00;96765.78;5006190;28;20149;-69
2023/12/01 08:59:07;;;;;;;7.25;5.00;;;;;;;6.01;100.00;96749.97;5029007;28;21653;-70
2023/12/01 09:01:32;;;;;;;9.80;6.28;;;;;;;6.35;100.00;96778.19;5012182;28;20033;-69
2023/12/01 09:03:58;;;;;;;8.45;5.93;;;;;;;6.33;100.00;96764.63;5035905;28;20036;-68
2023/12/01 09:06:23;;;;;;;9.52;6.15;;;;;;;6.20;100.00;96719.63;5018956;28;20086;-69
2023/12/01 09:08:51;;;;;;;9.65;5.72;;;;;;;6.45;100.00;96766.88;5012248;28;20037;-69
2023/12/01 09:11:16;;;;;;;9.15;6.63;;;;;;;6.49;100.00;96770.75;5044615;28;20056;-69
2023/12/01 09:13:42;;;;;;;8.95;6.47;;;;;;;6.58;100.00;96774.13;5027938;28;20124;-69
2023/12/01 09:16:11;;;;;;;8.77;6.25;;;;;;;6.65;100.00;96777.66;5015009;28;20812;-69
2023/12/01 09:18:38;;;;;;;10.85;6.78;;;;;;;6.63;100.00;96764.13;5018916;28;20056;-67
2023/12/01 09:21:04;;;;;;;10.50;6.55;;;;;;;6.33;100.00;96748.31;5023670;28;20106;-66
2023/12/01 09:23:32;;;;;;;9.82;6.72;;;;;;;6.55;100.00;96772.66;5019311;28;20468;-68
2023/12/01 09:25:57;;;;;;;11.15;7.45;;;;;;;6.54;100.00;96765.91;5024785;28;20034;-66
2023/12/01 09:28:23;;;;;;;10.23;6.65;;;;;;;6.32;100.00;96724.28;5040362;28;20553;-68
2023/12/01 09:30:49;;;;;;;9.68;6.50;;;;;;;6.57;100.00;96747.50;5025228;28;20029;-68
2023/12/01 09:33:16;;;;;;;10.13;7.22;;;;;;;6.55;100.00;96736.50;5039698;28;20036;-68
2023/12/01 09:35:42;;;;;;;12.40;7.65;;;;;;;6.60;100.00;96741.19;5010589;28;20029;-68
2023/12/01 09:38:07;;;;;;;13.25;7.45;;;;;;;6.35;100.00;96694.75;5031667;28;21256;-68
2023/12/01 09:40:43;;;;;;;10.52;7.03;;;;;;;6.45;100.00;96715.25;5033327;28;20029;-68
2023/12/01 09:43:13;;;;;;;8.43;6.30;;;;;;;6.53;100.00;96717.78;5013854;28;20036;-68
2023/12/01 09:45:38;;;;;;;;;;;;;;;6.60;100.00;96687.75;5048915;28;20033;-69
2023/12/01 09:48:08;;;;;;;10.35;5.68;;;;;;;6.39;100.00;96639.28;5022976;28;19935;-68
2023/12/01 09:50:36;;;;;;;9.32;6.05;;;;;;;6.65;100.00;96688.06;5031257;28;20468;-71
2023/12/01 09:53:04;;;;;;;8.82;5.45;;;;;;;6.61;100.00;96691.97;5027982;28;20114;-68
2023/12/01 09:55:31;;;;;;;9.95;6.30;;;;;;;6.53;100.00;96686.81;5029247;28;20021;-69
2023/12/01 09:58:02;;;;;;;9.13;6.15;;;;;;;6.56;100.00;96698.59;5032010;28;20029;-69
2023/12/01 10:00:29;;;;;;;9.13;6.05;;;;;;;6.36;100.00;96678.31;5044703;28;20021;-68
2023/12/01 10:02:55;;;;;;;10.32;7.32;;;;;;;6.54;100.00;96715.06;5029476;28;20037;-69
2023/12/01 10:05:20;;;;;;;9.95;6.35;;;;;;;6.50;100.00;96716.34;5026303;28;20067;-69
2023/12/01 10:07:48;;;;;;;9.15;6.57;;;;;;;6.48;100.00;96702.81;5048758;28;20033;-68
2023/12/01 10:10:26;;;;;;;10.43;6.65;;;;;;;6.41;100.00;96712.19;5029167;28;20033;-69
2023/12/01 10:12:58;;;;;;;11.02;7.47;;;;;;;6.25;100.00;96704.47;5045743;28;20040;-69
2023/12/01 10:15:25;;;;;;;9.93;6.82;;;;;;;6.48;100.00;96736.38;5031688;28;20033;-68
2023/12/01 10:17:54;;;;;;;10.43;7.30;;;;;;;6.34;100.00;96726.72;5028028;28;20074;-69
2023/12/01 10:20:23;;;;;;;10.15;6.50;;;;;;;6.34;100.00;96724.94;5045293;28;20029;-69
2023/12/01 10:22:49;;;;;;;9.55;6.82;;;;;;;6.35;100.00;96718.81;5015256;28;20025;-68
2023/12/01 10:25:17;;;;;;;10.30;6.50;;;;;;;6.49;100.00;96711.34;5032087;28;20041;-68
2023/12/01 10:27:54;;;;;;;9.77;6.38;;;;;;;6.51;100.00;96705.03;5009022;28;20059;-68
2023/12/01 10:30:19;;;;;;;10.75;6.90;;;;;;;6.47;100.00;96700.38;5025278;28;20083;-68
2023/12/01 10:32:44;;;;;;;9.43;6.20;;;;;;;6.40;100.00;96697.66;5029552;28;20064;-68
2023/12/01 10:35:10;;;;;;;8.75;5.75;;;;;;;6.40;100.00;96683.94;5035330;28;20059;-69
2023/12/01 10:37:39;;;;;;;9.48;5.97;;;;;;;6.44;100.00;96674.91;5029539;28;20027;-68
2023/12/01 10:40:05;;;;;;;8.80;5.82;;;;;;;6.41;100.00;96678.63;5046883;28;20035;-69
2023/12/01 10:42:32;;;;;;;11.07;6.03;;;;;;;6.08;100.00;96634.81;5031703;28;20035;-69
2023/12/01 10:45:03;;;;;;;8.98;6.00;;;;;;;6.26;100.00;96657.84;5011914;28;20021;-69
2023/12/01 10:47:34;;;;;;;8.32;5.78;;;;;;;6.30;100.00;96668.66;5015555;28;20025;-70
2023/12/01 10:50:01;;;;;;;9.55;6.07;;;;;;;6.28;100.00;96668.81;5013054;28;21143;-70
2023/12/01 10:52:27;;;;;;;9.75;6.18;;;;;;;6.40;100.00;96665.88;5033952;28;20059;-70
2023/12/01 10:54:55;;;;;;;7.65;5.15;;;;;;;6.33;100.00;96665.72;5025624;28;20071;-69
2023/12/01 10:57:42;;;;;;;8.57;5.53;;;;;;;6.41;100.00;96652.00;5046957;28;21082;-69
2023/12/01 11:00:29;;;;;;;9.73;6.25;;;;;;;6.42;100.00;96656.97;5022898;28;20021;-69
2023/12/01 11:02:59;;;;;;;7.63;5.03;;;;;;;6.15;100.00;96620.31;5012645;28;20032;-68
2023/12/01 11:05:27;;;;;;;8.60;4.43;;;;;;;6.51;100.00;96647.44;5029853;28;20053;-69
2023/12/01 11:07:59;;;;;;;9.48;4.40;;;;;;;6.33;100.00;96652.81;5003621;28;20024;-69
2023/12/01 11:10:42;;;;;;;6.30;3.90;;;;;;;6.39;100.00;96661.66;5030800;28;20039;-69
2023/12/01 11:13:21;;;;;;;6.88;4.65;;;;;;;6.21;100.00;96611.09;5030331;28;20063;-69
2023/12/01 11:15:49;;;;;;;7.65;4.50;;;;;;;6.41;100.00;96649.44;5004352;28;20108;-68
2023/12/01 11:18:18;;;;;;;6.53;4.10;;;;;;;6.40;100.00;96634.91;5045206;28;20554;-69
2023/12/01 11:20:44;;;;;;;6.07;4.22;;;;;;;6.54;100.00;96623.88;5022528;28;20029;-69
2023/12/01 11:23:13;;;;;;;6.60;4.22;;;;;;;6.44;100.00;96600.03;5025543;28;20025;-69
2023/12/01 11:25:48;;;;;;;6.38;4.32;;;;;;;6.51;100.00;96583.69;5022424;28;20025;-69